Aérodrome :
LOGIN :

S'inscrire | Disclaimer

   EN    FR    IT 

 










Légende :    VFR   VFR Marginal   IFR   IFR Intensif   IFR Très Intensif
Visi : 
Plafond : 
>= 8 km
>= 3000ft
5 à 8 km
1000 à 3000 ft
1500m à 5 km
500 à 1000 ft
800 à 1500m
200 à 500 ft
< 800m
< 200 ft
Symboles :   Orages  Brouillard  Fortes neiges  Fortes précipitations  Vent > 20 kt
SIGMETs :   Divers  Orages  Givrage  Turbulence  Onde Orograph.  Cendres Volcan.







- Altitude de l'aérodrome : 1302 ft
- Code IATA : GNB
- Voir les cartes d'approche


LFLS - Grenoble / St. Geoirs

DERNIER METAR :
  • 192000Z AUTO 10005KT CAVOK 10/07 Q1014

METARs EXPIRÉS :
  • 191930Z AUTO 09006KT CAVOK 11/07 Q1014
  • 191900Z AUTO 09008KT CAVOK 11/07 Q1014 NOSIG
  • 191830Z AUTO 10006KT CAVOK 12/07 Q1014 NOSIG
  • 191800Z AUTO 10007KT CAVOK 12/07 Q1013 NOSIG
  • 191730Z AUTO 12005KT CAVOK 14/07 Q1013 NOSIG

TAF TAF LFLS
Valide du 19 à 15h jusqu'au 20 à 15h UTC


191400Z 1915/2015 20005KT CAVOK
PROB40
TEMPO 2012/2015 20020KT
ATIS : +33 4 76 65 55 89
Pas de NOTAMs connus pour ce terrain.
1 SIGMET publié pour la FIR Marseille (LFMM) :
 
Orages noyés dans la masse
LFMM SIGMET 14 VALID 191900/192100 LFPW
LFMM MARSEILLE FIR/UIR EMBD TS OBS WI N3900 E00700 - N3900 E00430 - N4200 E00430 - N4215 E00230 - N4345 E00245 - N4345 E00300 - N4115 E00600 TOP FL370 STNR NC=



MET'MAP, la Météo Aéronautique d'un coup d'oeil ! - Copyright ORBIFLY Décembre 2007 - Disclaimer

ORBIFLY MET'MAP TEAM :

Programmation & Développement : Alexandra Zaïnal
Conception & Développement : Baudouin d'Aumeries
Co-Programmation & Développement : Marc-Olivier Méhu
Soutien technique & logistique : Manuel Goepfert

Contact : metmap@orbifly.com




SOURCES & CREDITS :

   NOAA